KEED/EED METAR and TAF weather

Enter ICAO airport designator
Station Type Date Time Source
KEED METAR 2019/02/23 16:56 UTC NOAA

KEED 231656Z AUTO 12004KT 10SM CLR 07/M02 A3034 RMK AO2 SLP269 T00671022


Station Type Date Time Source
KEED Decoded METAR 2019/02/23 16:56 UTC NOAA

NEEDLES AIRPORT, CA, United States (KEED) 34-46N 114-37W
Feb 23, 2019 - 11:56 AM EST / 2019.02.23 1656 UTC
Wind: from the ESE (120 degrees) at 5 MPH (4 KT):0
Visibility: 10 mile(s):0
Sky conditions: clear
Temperature: 44.1 F (6.7 C)
Dew Point: 28.0 F (-2.2 C)
Relative Humidity: 52%
Pressure (altimeter): 30.34 in. Hg (1027 hPa)
ob: KEED 231656Z AUTO 12004KT 10SM CLR 07/M02 A3034 RMK AO2 SLP269 T00671022
cycle: 17

Station Type Date Time Source
KEED TAF 2019/02/23 18:24 UTC NOAA

TAF KEED 231721Z 2318/2418 VRB05KT P6SM SKC
FM240000 VRB05KT P6SM SCT250
FM241600 01007KT P6SM BKN250


Example: see airport list